Terminal Aerodrome Forecast
Issued by NWS

Home | Current Version | Previous Version | Graphics & Text | Print | Product List | Glossary On
Versions: 1 2 3 4 5 6 7 8 9 10 11 12 13 14 15 16 17 18 19 20 21 22 23
000
FTUS43 KABR 041257 AAA
TAFATY
TAF AMD
KATY 041257Z 0413/0512 21012KT P6SM BKN025 OVC070
     FM041700 26011KT P6SM BKN010
     FM041800 27011KT P6SM SCT015
     FM041900 26011KT P6SM BKN015
     FM042200 25009KT P6SM SCT025
     FM050300 20007KT P6SM BKN150=

USA.gov is the U.S. government's official web portal to all federal, state and local government web resources and services.